Nord Imagination — 3FIA8 — position and weather

sailwx.info

Track history (hours):
 
Tides and Currents Weather Stations Pressure Air Temp Water Temp Dewpoint Dewpoint Depression Visibility Wind Speed Wind Dir Waves Ship Positions

Nord Imagination

Last reported at 2017-Mar-26 06:32 UTC. Time now 2017-Mar-26 07:29 UTC.
Position N 51°16' E 004°21'.

Length 179 m; draft 8.3 m.

Type: Ship (hazmat cat D). MMSI: 354828000.

Date/timePositionNaut miles runAvg speedWind from/ knotsBaromVisibWave heightAir tempDewpointWater temp
2017-Mar-26 06:32N 51°16' E 004°21'0 0.0
2017-Mar-26 05:32N 51°16' E 004°21'0 0.0
2017-Mar-26 04:32N 51°16' E 004°21'0 0.0
2017-Mar-26 03:32N 51°16' E 004°21'0 0.0
2017-Mar-26 02:17N 51°16' E 004°21'0 0.0
2017-Mar-26 01:32N 51°16' E 004°21'0 0.0
2017-Mar-26 00:29N 51°16' E 004°21'0 0.0
2017-Mar-25 23:32N 51°16' E 004°21'0 0.0
2017-Mar-25 22:29N 51°16' E 004°21'0 0.0
2017-Mar-25 21:29N 51°16' E 004°21'0 0.0
2017-Mar-25 20:29N 51°16' E 004°21'0 0.0
2017-Mar-25 19:32N 51°16' E 004°21'0 0.0
2017-Mar-25 18:11N 51°16' E 004°21'0 0.0
2017-Mar-25 17:32N 51°16' E 004°21'0 0.0
2017-Mar-25 16:26N 51°16' E 004°21'0 0.0
2017-Mar-25 15:26N 51°16' E 004°21'0 0.0
2017-Mar-25 14:26N 51°16' E 004°21'0 0.0
2017-Mar-25 13:26N 51°16' E 004°21'0 0.0
2017-Mar-25 12:26N 51°16' E 004°21'0 0.0
2017-Mar-25 11:32N 51°16' E 004°21'0 0.0
2017-Mar-25 10:17N 51°16' E 004°21'0 0.0
2017-Mar-25 09:32N 51°16' E 004°21'0 0.0
2017-Mar-25 08:32N 51°16' E 004°21'0 0.0
2017-Mar-25 07:32N 51°16' E 004°21'0 0.0
2017-Mar-25 06:29N 51°16' E 004°21'0 0.0
2017-Mar-25 05:32N 51°16' E 004°21'0 0.0
2017-Mar-25 04:32N 51°16' E 004°21'0 0.0
2017-Mar-25 03:32N 51°16' E 004°21'0 0.0
2017-Mar-25 02:29N 51°16' E 004°21'0 0.0
2017-Mar-25 01:32N 51°16' E 004°21'0 0.0
2017-Mar-25 00:32N 51°16' E 004°21'0 0.0
2017-Mar-24 23:32N 51°16' E 004°21'0 0.0
2017-Mar-24 22:32N 51°16' E 004°21'0 0.0
2017-Mar-24 21:32N 51°16' E 004°21'0 0.0
2017-Mar-24 20:32N 51°16' E 004°21'0 0.0
2017-Mar-24 19:32N 51°16' E 004°21'0 0.0
2017-Mar-24 18:32N 51°16' E 004°21'0 0.0
2017-Mar-24 17:32N 51°16' E 004°21'0 0.0
2017-Mar-24 16:32N 51°16' E 004°21'0 0.0
2017-Mar-24 15:32N 51°16' E 004°21'0 0.0
2017-Mar-24 14:32N 51°16' E 004°21'0 0.0
2017-Mar-24 13:29N 51°16' E 004°21'0 0.0
2017-Mar-24 12:32N 51°16' E 004°21'0 0.0
2017-Mar-24 11:32N 51°16' E 004°21'0 0.0
2017-Mar-24 10:32N 51°16' E 004°21'0 0.0
2017-Mar-24 09:29N 51°16' E 004°21'0 0.0
2017-Mar-24 08:34N 51°16' E 004°21'1 0.9
2017-Mar-24 07:34N 51°17' E 004°20'4 3.9
2017-Mar-24 06:33N 51°21' E 004°17'0 0.0
2017-Mar-24 05:33N 51°21' E 004°17'2 1.8
2017-Mar-24 04:33N 51°21' E 004°14'4 4.1
2017-Mar-24 03:33N 51°22' E 004°08'7 5.7
2017-Mar-24 02:22N 51°25' E 003°58'6 7.5
2017-Mar-24 01:33N 51°21' E 003°50'8 8.3
2017-Mar-24 00:33N 51°26' E 003°40'7 7.5
2017-Mar-23 23:33N 51°25' E 003°29'1111.5
2017-Mar-23 22:34N 51°24' E 003°10'1312.8
2017-Mar-23 21:33N 51°22' E 002°50'7 6.8
2017-Mar-23 20:34N 51°22' E 002°39'5 5.4
2017-Mar-23 19:34N 51°22' E 002°31'4 4.3
2017-Mar-23 18:34N 51°20' E 002°24'5 5.5
2017-Mar-23 17:34N 51°18' E 002°16'7 6.8
2017-Mar-23 16:33N 51°20' E 002°05'7 7.2
2017-Mar-23 15:33N 51°26' E 001°60'1313.2
2017-Mar-23 14:33N 51°36' E 002°13'1413.6
2017-Mar-23 13:32N 51°47' E 002°28'5012.0
2017-Mar-23 09:24N 52°03' E 003°44'8 9.2
2017-Mar-23 08:33N 52°02' E 003°56'9 8.5
2017-Mar-23 07:31N 51°57' E 004°09'0 0.0
2017-Mar-23 06:31N 51°57' E 004°09'0 0.0
2017-Mar-23 05:31N 51°57' E 004°09'0 0.0
2017-Mar-23 04:31N 51°57' E 004°09'0 0.0
2017-Mar-23 03:31N 51°57' E 004°09'0 0.0
2017-Mar-23 02:31N 51°57' E 004°09'0 0.0
2017-Mar-23 01:31N 51°57' E 004°09'0 0.0
2017-Mar-23 00:31N 51°57' E 004°09'0 0.0
2017-Mar-22 23:31N 51°57' E 004°09'0 0.0
2017-Mar-22 22:31N 51°57' E 004°09'0 0.0
2017-Mar-22 21:31N 51°57' E 004°09'0 0.0
2017-Mar-22 20:31N 51°57' E 004°09'0 0.0
2017-Mar-22 19:31N 51°57' E 004°09'0 0.0
2017-Mar-22 18:31N 51°57' E 004°09'0 0.0
2017-Mar-22 17:31N 51°57' E 004°09'0 0.0
2017-Mar-22 16:31N 51°57' E 004°09'0 0.0
2017-Mar-22 15:31N 51°57' E 004°09'0 0.0
2017-Mar-22 14:31N 51°57' E 004°09'0 0.0
2017-Mar-22 13:31N 51°57' E 004°09'0 0.0
2017-Mar-22 12:31N 51°57' E 004°09'0 0.0
2017-Mar-22 11:31N 51°57' E 004°09'0 0.0
2017-Mar-22 10:31N 51°57' E 004°09'0 0.0
2017-Mar-22 09:31N 51°57' E 004°09'0 0.0
2017-Mar-22 08:31N 51°57' E 004°09'0 0.0
2017-Mar-22 07:31N 51°57' E 004°09'0 0.0
2017-Mar-22 06:31N 51°57' E 004°09'0 0.0
2017-Mar-22 05:31N 51°57' E 004°09'0 0.0
2017-Mar-22 04:31N 51°57' E 004°09'0 0.0
2017-Mar-22 03:31N 51°57' E 004°09'0 0.0
2017-Mar-22 02:31N 51°57' E 004°09'0 0.0
2017-Mar-22 01:31N 51°57' E 004°09'0 0.0
2017-Mar-22 00:31N 51°57' E 004°09'0 0.0
2017-Mar-21 23:31N 51°57' E 004°09'0 0.0
2017-Mar-21 22:31N 51°57' E 004°09'0 0.0
2017-Mar-21 21:31N 51°57' E 004°09'0 0.0
2017-Mar-21 20:31N 51°57' E 004°09'0 0.0
2017-Mar-21 19:31N 51°57' E 004°09'0 0.0
2017-Mar-21 18:31N 51°57' E 004°09'0 0.0
2017-Mar-21 17:31N 51°57' E 004°09'0 0.0
2017-Mar-21 16:31N 51°57' E 004°09'0 0.0
2017-Mar-21 15:31N 51°57' E 004°09'0 0.0
2017-Mar-21 14:31N 51°57' E 004°09'0 0.0
2017-Mar-21 13:31N 51°57' E 004°09'0 0.0
2017-Mar-21 12:31N 51°57' E 004°09'0 0.0
2017-Mar-21 11:31N 51°57' E 004°09'0 0.0
2017-Mar-21 10:31N 51°57' E 004°09'0 0.0
2017-Mar-21 09:31N 51°57' E 004°09'0 0.0
2017-Mar-21 08:31N 51°57' E 004°09'0 0.0
2017-Mar-21 07:31N 51°57' E 004°09'0 0.0
2017-Mar-21 06:31N 51°57' E 004°09'0 0.0
2017-Mar-21 05:31N 51°57' E 004°09'0 0.0
2017-Mar-21 04:31N 51°57' E 004°09'0 0.0
2017-Mar-21 03:31N 51°57' E 004°09'0 0.0
2017-Mar-21 02:28N 51°57' E 004°09'0 0.0
2017-Mar-21 01:31N 51°57' E 004°09'0 0.0
2017-Mar-21 00:31N 51°57' E 004°09'0 0.0
2017-Mar-20 23:31N 51°57' E 004°09'3 3.0
2017-Mar-20 22:33N 51°56' E 004°12'1 0.6
2017-Mar-20 21:31N 51°55' E 004°13'0 0.0
2017-Mar-20 20:31N 51°55' E 004°13'0 0.0
2017-Mar-20 19:31N 51°55' E 004°13'0 0.0
2017-Mar-20 18:31N 51°55' E 004°13'0 0.0
2017-Mar-20 17:31N 51°55' E 004°13'0 0.0
2017-Mar-20 16:31N 51°55' E 004°13'0 0.0
2017-Mar-20 15:31N 51°55' E 004°13'0 0.0
2017-Mar-20 14:31N 51°55' E 004°13'0 0.0
2017-Mar-20 13:31N 51°55' E 004°13'0 0.0
2017-Mar-20 12:31N 51°55' E 004°13'0 0.0
2017-Mar-20 11:31N 51°55' E 004°13'0 0.0
2017-Mar-20 10:28N 51°55' E 004°13'0 0.0
2017-Mar-20 09:28N 51°55' E 004°13'0 0.0
2017-Mar-20 08:31N 51°55' E 004°13'0 0.0
2017-Mar-20 07:31N 51°55' E 004°13'0 0.0
2017-Mar-20 06:31N 51°55' E 004°13'0 0.0
2017-Mar-20 05:31N 51°55' E 004°13'0 0.0
2017-Mar-20 04:31N 51°55' E 004°13'0 0.0
2017-Mar-20 03:31N 51°55' E 004°13'0 0.0
2017-Mar-20 02:31N 51°55' E 004°13'0 0.0
2017-Mar-20 01:31N 51°55' E 004°13'0 0.0
2017-Mar-20 00:31N 51°55' E 004°13'0 0.0
2017-Mar-19 23:31N 51°55' E 004°13'0 0.0
2017-Mar-19 22:31N 51°55' E 004°13'0 0.0
2017-Mar-19 21:31N 51°55' E 004°13'0 0.0
2017-Mar-19 20:31N 51°55' E 004°13'0 0.0
2017-Mar-19 19:31N 51°55' E 004°13'0 0.0
2017-Mar-19 18:31N 51°55' E 004°13'0 0.0
2017-Mar-19 17:28N 51°55' E 004°13'0 0.0
2017-Mar-19 16:31N 51°55' E 004°13'0 0.0
2017-Mar-19 15:31N 51°55' E 004°13'0 0.0
2017-Mar-19 14:31N 51°55' E 004°13'0 0.0
2017-Mar-19 13:33N 51°55' E 004°13'5 5.2
2017-Mar-19 12:33N 51°58' E 004°06'1010.2
2017-Mar-19 11:33N 51°59' E 003°50'9 8.8
2017-Mar-19 10:33N 51°57' E 003°36'3 3.2
2017-Mar-19 09:29N 51°55' E 003°32'0 0.0
2017-Mar-19 08:14N 51°55' E 003°32'0 0.0
2017-Mar-19 07:09N 51°55' E 003°32'1 1.6
2017-Mar-19 06:31N 51°56' E 003°31'8 7.2
2017-Mar-19 05:26N 51°55' E 003°19'4112.9
2017-Mar-19 02:16N 51°35' E 002°21'912.6
2017-Mar-19 01:34N 51°28' E 002°11'1211.7
2017-Mar-19 00:33N 51°17' E 002°06'1110.7
2017-Mar-18 23:34N 51°10' E 001°53'1010.1
2017-Mar-18 22:34N 51°04' E 001°41'9 8.7
2017-Mar-18 21:34N 50°57' E 001°31'10 9.5
2017-Mar-18 20:33N 50°48' E 001°26'4610.5
2017-Mar-18 16:13N 50°24' E 000°25'710.2
2017-Mar-18 15:33N 50°22' E 000°15'1212.2
2017-Mar-18 14:33N 50°19' W 000°04'1513.1
2017-Mar-18 13:25N 50°16' W 000°27'1414.2
2017-Mar-18 12:26N 50°11' W 000°47'1414.9
2017-Mar-18 11:29N 50°07' W 001°08'1415.3
2017-Mar-18 10:33N 50°03' W 001°29'1515.0
2017-Mar-18 09:33N 49°59' W 001°52'1414.1
2017-Mar-18 08:34N 49°56' W 002°13'2512.3
2017-Mar-18 06:33N 49°48' W 002°49'1211.6
2017-Mar-18 05:33N 49°45' W 003°07'1111.3
2017-Mar-18 04:33N 49°38' W 003°21'2311.3
2017-Mar-18 02:33N 49°27' W 003°51'6011.7
2017-Mar-17 21:25N 48°57' W 005°11'1113.1
2017-Mar-17 20:33N 48°53' W 005°26'6613.2
2017-Mar-17 15:32N 47°56' W 006°18'  
Track history (hours):
 
Tides and Currents Weather Stations Pressure Air Temp Water Temp Dewpoint Dewpoint Depression Visibility Wind Speed Wind Dir Waves Ship Positions

Nord Imagination

Last reported at 2017-Mar-26 06:32 UTC. Time now 2017-Mar-26 07:29 UTC.
Position N 51°16' E 004°21'.

Length 179 m; draft 8.3 m.

Type: Ship (hazmat cat D). MMSI: 354828000.

Date/timePositionNaut miles runAvg speedWind from/ knotsBaromVisibWave heightAir tempDewpointWater temp
2017-Mar-26 06:32N 51°16' E 004°21'0 0.0
2017-Mar-26 05:32N 51°16' E 004°21'0 0.0
2017-Mar-26 04:32N 51°16' E 004°21'0 0.0
2017-Mar-26 03:32N 51°16' E 004°21'0 0.0
2017-Mar-26 02:17N 51°16' E 004°21'0 0.0
2017-Mar-26 01:32N 51°16' E 004°21'0 0.0
2017-Mar-26 00:29N 51°16' E 004°21'0 0.0
2017-Mar-25 23:32N 51°16' E 004°21'0 0.0
2017-Mar-25 22:29N 51°16' E 004°21'0 0.0
2017-Mar-25 21:29N 51°16' E 004°21'0 0.0
2017-Mar-25 20:29N 51°16' E 004°21'0 0.0
2017-Mar-25 19:32N 51°16' E 004°21'0 0.0
2017-Mar-25 18:11N 51°16' E 004°21'0 0.0
2017-Mar-25 17:32N 51°16' E 004°21'0 0.0
2017-Mar-25 16:26N 51°16' E 004°21'0 0.0
2017-Mar-25 15:26N 51°16' E 004°21'0 0.0
2017-Mar-25 14:26N 51°16' E 004°21'0 0.0
2017-Mar-25 13:26N 51°16' E 004°21'0 0.0
2017-Mar-25 12:26N 51°16' E 004°21'0 0.0
2017-Mar-25 11:32N 51°16' E 004°21'0 0.0
2017-Mar-25 10:17N 51°16' E 004°21'0 0.0
2017-Mar-25 09:32N 51°16' E 004°21'0 0.0
2017-Mar-25 08:32N 51°16' E 004°21'0 0.0
2017-Mar-25 07:32N 51°16' E 004°21'0 0.0
2017-Mar-25 06:29N 51°16' E 004°21'0 0.0
2017-Mar-25 05:32N 51°16' E 004°21'0 0.0
2017-Mar-25 04:32N 51°16' E 004°21'0 0.0
2017-Mar-25 03:32N 51°16' E 004°21'0 0.0
2017-Mar-25 02:29N 51°16' E 004°21'0 0.0
2017-Mar-25 01:32N 51°16' E 004°21'0 0.0
2017-Mar-25 00:32N 51°16' E 004°21'0 0.0
2017-Mar-24 23:32N 51°16' E 004°21'0 0.0
2017-Mar-24 22:32N 51°16' E 004°21'0 0.0
2017-Mar-24 21:32N 51°16' E 004°21'0 0.0
2017-Mar-24 20:32N 51°16' E 004°21'0 0.0
2017-Mar-24 19:32N 51°16' E 004°21'0 0.0
2017-Mar-24 18:32N 51°16' E 004°21'0 0.0
2017-Mar-24 17:32N 51°16' E 004°21'0 0.0
2017-Mar-24 16:32N 51°16' E 004°21'0 0.0
2017-Mar-24 15:32N 51°16' E 004°21'0 0.0
2017-Mar-24 14:32N 51°16' E 004°21'0 0.0
2017-Mar-24 13:29N 51°16' E 004°21'0 0.0
2017-Mar-24 12:32N 51°16' E 004°21'0 0.0
2017-Mar-24 11:32N 51°16' E 004°21'0 0.0
2017-Mar-24 10:32N 51°16' E 004°21'0 0.0
2017-Mar-24 09:29N 51°16' E 004°21'0 0.0
2017-Mar-24 08:34N 51°16' E 004°21'1 0.9
2017-Mar-24 07:34N 51°17' E 004°20'4 3.9
2017-Mar-24 06:33N 51°21' E 004°17'0 0.0
2017-Mar-24 05:33N 51°21' E 004°17'2 1.8
2017-Mar-24 04:33N 51°21' E 004°14'4 4.1
2017-Mar-24 03:33N 51°22' E 004°08'7 5.7
2017-Mar-24 02:22N 51°25' E 003°58'6 7.5
2017-Mar-24 01:33N 51°21' E 003°50'8 8.3
2017-Mar-24 00:33N 51°26' E 003°40'7 7.5
2017-Mar-23 23:33N 51°25' E 003°29'1111.5
2017-Mar-23 22:34N 51°24' E 003°10'1312.8
2017-Mar-23 21:33N 51°22' E 002°50'7 6.8
2017-Mar-23 20:34N 51°22' E 002°39'5 5.4
2017-Mar-23 19:34N 51°22' E 002°31'4 4.3
2017-Mar-23 18:34N 51°20' E 002°24'5 5.5
2017-Mar-23 17:34N 51°18' E 002°16'7 6.8
2017-Mar-23 16:33N 51°20' E 002°05'7 7.2
2017-Mar-23 15:33N 51°26' E 001°60'1313.2
2017-Mar-23 14:33N 51°36' E 002°13'1413.6
2017-Mar-23 13:32N 51°47' E 002°28'5012.0
2017-Mar-23 09:24N 52°03' E 003°44'8 9.2
2017-Mar-23 08:33N 52°02' E 003°56'9 8.5
2017-Mar-23 07:31N 51°57' E 004°09'0 0.0
2017-Mar-23 06:31N 51°57' E 004°09'0 0.0
2017-Mar-23 05:31N 51°57' E 004°09'0 0.0
2017-Mar-23 04:31N 51°57' E 004°09'0 0.0
2017-Mar-23 03:31N 51°57' E 004°09'0 0.0
2017-Mar-23 02:31N 51°57' E 004°09'0 0.0
2017-Mar-23 01:31N 51°57' E 004°09'0 0.0
2017-Mar-23 00:31N 51°57' E 004°09'0 0.0
2017-Mar-22 23:31N 51°57' E 004°09'0 0.0
2017-Mar-22 22:31N 51°57' E 004°09'0 0.0
2017-Mar-22 21:31N 51°57' E 004°09'0 0.0
2017-Mar-22 20:31N 51°57' E 004°09'0 0.0
2017-Mar-22 19:31N 51°57' E 004°09'0 0.0
2017-Mar-22 18:31N 51°57' E 004°09'0 0.0
2017-Mar-22 17:31N 51°57' E 004°09'0 0.0
2017-Mar-22 16:31N 51°57' E 004°09'0 0.0
2017-Mar-22 15:31N 51°57' E 004°09'0 0.0
2017-Mar-22 14:31N 51°57' E 004°09'0 0.0
2017-Mar-22 13:31N 51°57' E 004°09'0 0.0
2017-Mar-22 12:31N 51°57' E 004°09'0 0.0
2017-Mar-22 11:31N 51°57' E 004°09'0 0.0
2017-Mar-22 10:31N 51°57' E 004°09'0 0.0
2017-Mar-22 09:31N 51°57' E 004°09'0 0.0
2017-Mar-22 08:31N 51°57' E 004°09'0 0.0
2017-Mar-22 07:31N 51°57' E 004°09'0 0.0
2017-Mar-22 06:31N 51°57' E 004°09'0 0.0
2017-Mar-22 05:31N 51°57' E 004°09'0 0.0
2017-Mar-22 04:31N 51°57' E 004°09'0 0.0
2017-Mar-22 03:31N 51°57' E 004°09'0 0.0
2017-Mar-22 02:31N 51°57' E 004°09'0 0.0
2017-Mar-22 01:31N 51°57' E 004°09'0 0.0
2017-Mar-22 00:31N 51°57' E 004°09'0 0.0
2017-Mar-21 23:31N 51°57' E 004°09'0 0.0
2017-Mar-21 22:31N 51°57' E 004°09'0 0.0
2017-Mar-21 21:31N 51°57' E 004°09'0 0.0
2017-Mar-21 20:31N 51°57' E 004°09'0 0.0
2017-Mar-21 19:31N 51°57' E 004°09'0 0.0
2017-Mar-21 18:31N 51°57' E 004°09'0 0.0
2017-Mar-21 17:31N 51°57' E 004°09'0 0.0
2017-Mar-21 16:31N 51°57' E 004°09'0 0.0
2017-Mar-21 15:31N 51°57' E 004°09'0 0.0
2017-Mar-21 14:31N 51°57' E 004°09'0 0.0
2017-Mar-21 13:31N 51°57' E 004°09'0 0.0
2017-Mar-21 12:31N 51°57' E 004°09'0 0.0
2017-Mar-21 11:31N 51°57' E 004°09'0 0.0
2017-Mar-21 10:31N 51°57' E 004°09'0 0.0
2017-Mar-21 09:31N 51°57' E 004°09'0 0.0
2017-Mar-21 08:31N 51°57' E 004°09'0 0.0
2017-Mar-21 07:31N 51°57' E 004°09'0 0.0
2017-Mar-21 06:31N 51°57' E 004°09'0 0.0
2017-Mar-21 05:31N 51°57' E 004°09'0 0.0
2017-Mar-21 04:31N 51°57' E 004°09'0 0.0
2017-Mar-21 03:31N 51°57' E 004°09'0 0.0
2017-Mar-21 02:28N 51°57' E 004°09'0 0.0
2017-Mar-21 01:31N 51°57' E 004°09'0 0.0
2017-Mar-21 00:31N 51°57' E 004°09'0 0.0
2017-Mar-20 23:31N 51°57' E 004°09'3 3.0
2017-Mar-20 22:33N 51°56' E 004°12'1 0.6
2017-Mar-20 21:31N 51°55' E 004°13'0 0.0
2017-Mar-20 20:31N 51°55' E 004°13'0 0.0
2017-Mar-20 19:31N 51°55' E 004°13'0 0.0
2017-Mar-20 18:31N 51°55' E 004°13'0 0.0
2017-Mar-20 17:31N 51°55' E 004°13'0 0.0
2017-Mar-20 16:31N 51°55' E 004°13'0 0.0
2017-Mar-20 15:31N 51°55' E 004°13'0 0.0
2017-Mar-20 14:31N 51°55' E 004°13'0 0.0
2017-Mar-20 13:31N 51°55' E 004°13'0 0.0
2017-Mar-20 12:31N 51°55' E 004°13'0 0.0
2017-Mar-20 11:31N 51°55' E 004°13'0 0.0
2017-Mar-20 10:28N 51°55' E 004°13'0 0.0
2017-Mar-20 09:28N 51°55' E 004°13'0 0.0
2017-Mar-20 08:31N 51°55' E 004°13'0 0.0
2017-Mar-20 07:31N 51°55' E 004°13'0 0.0
2017-Mar-20 06:31N 51°55' E 004°13'0 0.0
2017-Mar-20 05:31N 51°55' E 004°13'0 0.0
2017-Mar-20 04:31N 51°55' E 004°13'0 0.0
2017-Mar-20 03:31N 51°55' E 004°13'0 0.0
2017-Mar-20 02:31N 51°55' E 004°13'0 0.0
2017-Mar-20 01:31N 51°55' E 004°13'0 0.0
2017-Mar-20 00:31N 51°55' E 004°13'0 0.0
2017-Mar-19 23:31N 51°55' E 004°13'0 0.0
2017-Mar-19 22:31N 51°55' E 004°13'0 0.0
2017-Mar-19 21:31N 51°55' E 004°13'0 0.0
2017-Mar-19 20:31N 51°55' E 004°13'0 0.0
2017-Mar-19 19:31N 51°55' E 004°13'0 0.0
2017-Mar-19 18:31N 51°55' E 004°13'0 0.0
2017-Mar-19 17:28N 51°55' E 004°13'0 0.0
2017-Mar-19 16:31N 51°55' E 004°13'0 0.0
2017-Mar-19 15:31N 51°55' E 004°13'0 0.0
2017-Mar-19 14:31N 51°55' E 004°13'0 0.0
2017-Mar-19 13:33N 51°55' E 004°13'5 5.2
2017-Mar-19 12:33N 51°58' E 004°06'1010.2
2017-Mar-19 11:33N 51°59' E 003°50'9 8.8
2017-Mar-19 10:33N 51°57' E 003°36'3 3.2
2017-Mar-19 09:29N 51°55' E 003°32'0 0.0
2017-Mar-19 08:14N 51°55' E 003°32'0 0.0
2017-Mar-19 07:09N 51°55' E 003°32'1 1.6
2017-Mar-19 06:31N 51°56' E 003°31'8 7.2
2017-Mar-19 05:26N 51°55' E 003°19'4112.9
2017-Mar-19 02:16N 51°35' E 002°21'912.6
2017-Mar-19 01:34N 51°28' E 002°11'1211.7
2017-Mar-19 00:33N 51°17' E 002°06'1110.7
2017-Mar-18 23:34N 51°10' E 001°53'1010.1
2017-Mar-18 22:34N 51°04' E 001°41'9 8.7
2017-Mar-18 21:34N 50°57' E 001°31'10 9.5
2017-Mar-18 20:33N 50°48' E 001°26'4610.5
2017-Mar-18 16:13N 50°24' E 000°25'710.2
2017-Mar-18 15:33N 50°22' E 000°15'1212.2
2017-Mar-18 14:33N 50°19' W 000°04'1513.1
2017-Mar-18 13:25N 50°16' W 000°27'1414.2
2017-Mar-18 12:26N 50°11' W 000°47'1414.9
2017-Mar-18 11:29N 50°07' W 001°08'1415.3
2017-Mar-18 10:33N 50°03' W 001°29'1515.0
2017-Mar-18 09:33N 49°59' W 001°52'1414.1
2017-Mar-18 08:34N 49°56' W 002°13'2512.3
2017-Mar-18 06:33N 49°48' W 002°49'1211.6
2017-Mar-18 05:33N 49°45' W 003°07'1111.3
2017-Mar-18 04:33N 49°38' W 003°21'2311.3
2017-Mar-18 02:33N 49°27' W 003°51'6011.7
2017-Mar-17 21:25N 48°57' W 005°11'1113.1
2017-Mar-17 20:33N 48°53' W 005°26'6613.2
2017-Mar-17 15:32N 47°56' W 006°18'  

Dump ship's entire track history